Time;durP1;ratioP1;P1;durP2;ratioP2;P2;SDS_P1;SDS_P2;PMS_P1;PMS_P2;Temp;Humidity;BMP_temperature;BMP_pressure;BME280_temperature;BME280_humidity;BME280_pressure;Samples;Min_cycle;Max_cycle;Signal;HPM_P1;HPM_P2
2021/11/25 00:00:00;;;;;;;8.27;4.95;;;;;;;14.83;65.05;102036.22;144994;595;5002;-85
2021/11/25 00:02:31;;;;;;;11.32;4.80;;;;;;;14.83;65.51;102039.69;144994;618;5002;-85
2021/11/25 00:05:08;;;;;;;6.75;4.40;;;;;;;14.80;65.29;102039.59;144994;600;5010;-84
2021/11/25 00:07:36;;;;;;;6.68;4.90;;;;;;;14.83;65.52;102044.06;144994;569;5002;-83
2021/11/25 00:10:08;;;;;;;8.82;4.68;;;;;;;14.90;65.66;102046.00;144994;725;5002;-83
2021/11/25 00:12:37;;;;;;;7.68;5.00;;;;;;;14.94;65.36;102041.81;144994;594;5002;-83
2021/11/25 00:15:06;;;;;;;6.05;4.60;;;;;;;15.01;65.20;102046.38;144994;569;5002;-84
2021/11/25 00:17:35;;;;;;;6.28;4.90;;;;;;;15.05;64.87;102051.75;144994;586;5002;-83
2021/11/25 00:20:04;;;;;;;6.55;4.60;;;;;;;15.10;64.79;102049.28;144994;564;5002;-82
2021/11/25 00:22:30;;;;;;;6.78;4.40;;;;;;;15.10;64.67;102049.28;144994;597;5002;-84
2021/11/25 00:24:57;;;;;;;5.12;4.05;;;;;;;15.06;64.54;102050.03;144994;602;5002;-83
2021/11/25 00:27:23;;;;;;;7.37;4.30;;;;;;;15.03;64.49;102042.97;144994;600;5002;-82
2021/11/25 00:29:50;;;;;;;6.35;3.97;;;;;;;14.96;64.78;102043.59;144994;739;5002;-83
2021/11/25 00:32:16;;;;;;;5.28;3.90;;;;;;;14.87;64.49;102040.69;144994;598;5002;-83
2021/11/25 00:34:43;;;;;;;6.22;3.67;;;;;;;14.80;64.75;102043.94;144994;583;5002;-82
2021/11/25 00:37:09;;;;;;;5.57;4.20;;;;;;;14.73;64.66;102029.78;144994;585;5002;-82
2021/11/25 00:39:37;;;;;;;6.37;4.00;;;;;;;14.68;64.93;102029.63;144994;622;5002;-82
2021/11/25 00:42:08;;;;;;;5.80;4.28;;;;;;;14.63;64.82;102027.69;144994;590;5002;-82
2021/11/25 00:44:37;;;;;;;5.68;4.00;;;;;;;14.65;64.81;102031.22;144994;564;5002;-82
2021/11/25 00:47:03;;;;;;;5.68;3.87;;;;;;;14.65;64.91;102031.22;144994;630;5002;-82
2021/11/25 00:49:30;;;;;;;6.65;4.60;;;;;;;14.63;64.71;102038.12;144994;564;5002;-82
2021/11/25 00:51:56;;;;;;;6.32;3.90;;;;;;;14.60;64.70;102038.03;144994;618;5002;-83
2021/11/25 00:54:23;;;;;;;4.65;3.85;;;;;;;14.47;65.07;102034.94;144994;594;5002;-83
2021/11/25 00:56:51;;;;;;;6.97;4.75;;;;;;;14.45;65.27;102041.84;144994;602;5002;-83
2021/11/25 00:59:17;;;;;;;9.85;5.00;;;;;;;14.43;65.26;102032.22;144994;587;5002;-82
2021/11/25 01:01:44;;;;;;;6.18;4.28;;;;;;;14.41;65.54;102034.78;144994;578;5002;-83
2021/11/25 01:04:11;;;;;;;6.90;4.10;;;;;;;14.43;65.39;102030.47;144994;569;5002;-84
2021/11/25 01:06:38;;;;;;;7.68;3.97;;;;;;;14.43;65.31;102027.88;144994;580;5002;-83
2021/11/25 01:09:05;;;;;;;5.85;3.83;;;;;;;14.45;65.12;102014.84;144994;610;5002;-82
2021/11/25 01:11:31;;;;;;;5.93;3.62;;;;;;;14.47;65.19;102021.00;144994;596;5003;-81
2021/11/25 01:14:05;;;;;;;5.47;3.53;;;;;;;14.49;65.25;102016.72;144994;628;4572;-80
2021/11/25 01:19:05;;;;;;;6.97;4.20;;;;;;;14.59;65.46;102025.78;144992;576;6002;-85
2021/11/25 01:21:42;;;;;;;6.47;3.92;;;;;;;14.66;64.80;102017.34;144992;600;6002;-84
2021/11/25 01:24:12;;;;;;;5.85;3.92;;;;;;;14.76;64.85;102024.66;144991;569;6002;-83
2021/11/25 01:26:39;;;;;;;5.05;4.07;;;;;;;14.67;64.83;102030.44;144992;584;6002;-83
2021/11/25 01:29:05;;;;;;;5.12;4.25;;;;;;;14.56;65.17;102023.06;144992;611;6002;-83
2021/11/25 01:31:32;;;;;;;6.10;4.10;;;;;;;14.51;64.99;102026.41;144992;570;6002;-83
2021/11/25 01:33:59;;;;;;;6.95;4.72;;;;;;;14.44;64.62;102019.16;144992;611;6002;-82
2021/11/25 01:36:27;;;;;;;8.10;4.80;;;;;;;14.46;64.94;102021.84;144992;579;6002;-83
2021/11/25 01:39:00;;;;;;;7.47;5.20;;;;;;;14.47;65.28;102016.66;144992;612;6002;-84
2021/11/25 01:41:39;;;;;;;8.35;5.10;;;;;;;14.57;65.41;102011.75;144992;575;6002;-82
2021/11/25 01:44:10;;;;;;;6.70;5.25;;;;;;;14.64;64.79;102017.28;144992;596;6002;-82
2021/11/25 01:46:37;;;;;;;7.95;5.53;;;;;;;14.69;64.89;102013.09;144992;587;6002;-83
2021/11/25 01:49:05;;;;;;;6.97;5.43;;;;;;;14.68;64.98;102010.44;144992;602;6002;-85
2021/11/25 01:51:39;;;;;;;7.87;5.75;;;;;;;14.68;65.29;102010.44;144992;612;6002;-85
2021/11/25 01:54:06;;;;;;;7.37;5.57;;;;;;;14.70;65.11;102008.78;144992;615;6002;-83
2021/11/25 01:56:34;;;;;;;7.62;5.82;;;;;;;14.76;64.72;102011.59;144992;579;6002;-82
2021/11/25 01:59:03;;;;;;;8.20;5.85;;;;;;;14.83;64.87;102010.06;144992;579;6002;-84
2021/11/25 02:01:34;;;;;;;8.73;5.68;;;;;;;14.86;64.47;102008.44;144992;598;6002;-83
2021/11/25 02:04:02;;;;;;;7.90;5.68;;;;;;;14.86;64.25;102003.19;144992;652;6002;-83
2021/11/25 02:06:29;;;;;;;8.25;5.55;;;;;;;14.86;64.12;101999.72;144992;722;6002;-82
2021/11/25 02:08:56;;;;;;;8.07;4.87;;;;;;;14.82;64.29;102003.94;144992;650;6002;-84
2021/11/25 02:11:24;;;;;;;8.35;4.20;;;;;;;14.77;64.26;102000.28;144992;598;6002;-83
2021/11/25 02:13:52;;;;;;;4.62;3.83;;;;;;;14.66;64.82;102005.16;144992;585;6002;-82
2021/11/25 02:16:19;;;;;;;7.37;4.50;;;;;;;14.56;65.06;101996.94;144992;590;6002;-84
2021/11/25 02:18:46;;;;;;;5.78;4.53;;;;;;;14.52;65.03;101995.91;144992;580;6002;-84
2021/11/25 02:21:16;;;;;;;4.87;4.05;;;;;;;14.52;65.36;102003.75;144992;592;6002;-83
2021/11/25 02:23:43;;;;;;;5.40;4.03;;;;;;;14.55;65.17;102008.22;144992;588;6002;-84
2021/11/25 02:26:10;;;;;;;6.78;4.40;;;;;;;14.57;64.90;102002.22;144992;653;6002;-82
2021/11/25 02:28:39;;;;;;;5.95;4.00;;;;;;;14.55;64.85;102008.22;144992;596;6002;-82
2021/11/25 02:31:07;;;;;;;5.30;4.03;;;;;;;14.48;65.00;101999.28;144992;583;6002;-83
2021/11/25 02:33:35;;;;;;;5.68;3.95;;;;;;;14.28;64.64;101995.97;144992;569;6002;-81
2021/11/25 02:36:27;;;;;;;6.68;3.78;;;;;;;14.18;65.57;101997.38;144992;614;6002;-83
2021/11/25 02:38:55;;;;;;;7.53;4.20;;;;;;;14.24;65.59;101994.97;144992;626;6002;-83
2021/11/25 02:41:22;;;;;;;5.75;3.95;;;;;;;14.29;65.51;101992.53;144992;599;6002;-84
2021/11/25 02:43:50;;;;;;;9.38;4.20;;;;;;;14.29;64.99;101993.41;144992;569;6002;-83
2021/11/25 02:46:18;;;;;;;5.70;3.95;;;;;;;14.33;64.99;101994.41;144992;627;6002;-82
2021/11/25 02:48:48;;;;;;;7.90;4.15;;;;;;;14.34;64.79;101996.19;144992;566;6002;-82
2021/11/25 02:51:18;;;;;;;6.75;4.43;;;;;;;14.33;64.63;101999.63;144992;589;6002;-82
2021/11/25 02:53:44;;;;;;;5.68;4.35;;;;;;;14.32;64.56;101985.69;144992;596;6002;-83
2021/11/25 02:56:18;;;;;;;6.50;4.37;;;;;;;14.32;64.50;101992.66;144992;600;6002;-82
2021/11/25 02:58:48;;;;;;;6.35;4.90;;;;;;;14.30;64.77;101994.28;144992;587;6002;-82
2021/11/25 03:01:21;;;;;;;11.20;5.07;;;;;;;14.25;64.41;101988.03;144992;711;6002;-82
2021/11/25 03:03:49;;;;;;;6.32;4.20;;;;;;;14.15;64.13;101992.03;144992;633;6002;-83
2021/11/25 03:06:16;;;;;;;5.60;3.92;;;;;;;14.13;64.53;101993.72;144992;582;6002;-83
2021/11/25 03:08:44;;;;;;;7.28;3.70;;;;;;;14.10;64.61;101993.59;144991;576;6002;-82
2021/11/25 03:11:13;;;;;;;5.80;3.60;;;;;;;14.09;64.90;101994.44;144992;601;6002;-82
2021/11/25 03:13:42;;;;;;;6.10;3.55;;;;;;;14.11;64.40;101995.38;144992;589;6002;-83
2021/11/25 03:16:10;;;;;;;4.97;3.50;;;;;;;14.10;64.70;101991.88;144992;598;6002;-83
2021/11/25 03:18:38;;;;;;;5.37;3.15;;;;;;;14.12;64.45;101992.81;144992;577;6002;-83
2021/11/25 03:21:06;;;;;;;4.90;3.20;;;;;;;13.93;64.32;101990.38;144992;780;6002;-81
2021/11/25 03:23:37;;;;;;;7.50;3.70;;;;;;;13.70;65.12;101980.00;144992;571;6002;-83
2021/11/25 03:26:06;;;;;;;13.75;3.92;;;;;;;13.70;65.93;101986.94;144992;566;6002;-82
2021/11/25 03:28:36;;;;;;;6.32;3.67;;;;;;;13.71;65.44;101981.78;144992;602;6002;-83
2021/11/25 03:31:03;;;;;;;5.60;3.70;;;;;;;13.75;65.52;101988.00;144992;569;6002;-83
2021/11/25 03:33:31;;;;;;;4.50;3.50;;;;;;;13.77;65.79;101981.97;144992;569;6002;-85
2021/11/25 03:36:00;;;;;;;8.38;4.00;;;;;;;13.82;65.26;101984.75;144992;769;6002;-84
2021/11/25 03:38:26;;;;;;;7.07;4.07;;;;;;;13.83;65.01;101970.91;144992;594;6002;-83
2021/11/25 03:40:54;;;;;;;7.60;4.50;;;;;;;13.87;65.34;101977.09;144992;624;6018;-82
2021/11/25 03:43:20;;;;;;;6.60;3.80;;;;;;;13.85;64.95;101977.06;144992;639;6002;-82
2021/11/25 03:45:47;;;;;;;5.93;4.28;;;;;;;13.89;65.14;101975.47;144992;706;6002;-82
2021/11/25 03:48:14;;;;;;;6.65;4.30;;;;;;;13.89;65.05;101981.56;144992;572;6002;-83
2021/11/25 03:50:41;;;;;;;6.78;4.40;;;;;;;13.89;65.28;101980.69;144992;578;6002;-82
2021/11/25 03:53:08;;;;;;;6.50;4.70;;;;;;;13.91;65.21;101973.78;144992;581;6002;-82
2021/11/25 03:55:37;;;;;;;9.88;5.37;;;;;;;13.93;65.07;101966.88;144992;622;6002;-82
2021/11/25 03:58:04;;;;;;;8.90;4.80;;;;;;;13.95;65.28;101968.72;144992;589;6002;-82
2021/11/25 04:00:32;;;;;;;6.97;4.65;;;;;;;13.97;65.04;101969.66;144992;569;6002;-83
2021/11/25 04:03:01;;;;;;;6.12;4.53;;;;;;;14.00;65.02;101973.22;144992;596;6002;-84
2021/11/25 04:05:28;;;;;;;10.65;5.25;;;;;;;14.07;65.23;101967.38;144992;569;6002;-83
2021/11/25 04:07:55;;;;;;;9.02;5.43;;;;;;;14.13;65.05;101983.28;144992;563;6002;-82
2021/11/25 04:10:21;;;;;;;5.87;4.65;;;;;;;14.13;65.29;101986.75;144992;620;6002;-81
2021/11/25 04:12:48;;;;;;;7.35;4.43;;;;;;;14.13;65.38;101986.75;144992;572;6002;-82
2021/11/25 04:15:16;;;;;;;6.45;4.50;;;;;;;14.13;64.67;101986.75;144992;601;6002;-82
2021/11/25 04:17:43;;;;;;;7.22;4.05;;;;;;;14.11;64.72;101978.00;144992;569;6002;-83
2021/11/25 04:20:11;;;;;;;6.03;4.32;;;;;;;14.11;64.97;101990.16;144991;593;6002;-83
2021/11/25 04:22:38;;;;;;;12.27;4.90;;;;;;;14.07;64.47;101983.94;144991;565;6002;-82
2021/11/25 04:25:07;;;;;;;7.57;4.55;;;;;;;14.07;64.95;101996.09;144992;632;6002;-81
2021/11/25 04:27:42;;;;;;;6.18;4.37;;;;;;;14.06;64.67;101994.31;144992;572;6002;-82
2021/11/25 04:35:40;;;;;;;8.55;3.70;;;;;;;14.11;64.45;101987.53;144992;578;6002;-82
2021/11/25 04:38:16;;;;;;;6.10;4.25;;;;;;;14.06;64.88;101983.88;144992;599;6002;-83
2021/11/25 04:40:50;;;;;;;6.07;4.82;;;;;;;14.05;64.97;101987.34;144992;711;6002;-83
2021/11/25 04:43:20;;;;;;;5.95;4.30;;;;;;;14.04;64.39;101990.78;144991;579;6002;-82
2021/11/25 04:45:50;;;;;;;6.12;4.12;;;;;;;14.02;64.60;101995.06;144992;666;6002;-83
2021/11/25 04:48:22;;;;;;;5.40;3.40;;;;;;;13.89;65.35;102001.56;144992;609;6002;-82
2021/11/25 04:50:49;;;;;;;6.07;3.35;;;;;;;13.86;64.92;102001.44;144992;589;6002;-83
2021/11/25 04:53:15;;;;;;;5.90;3.50;;;;;;;13.82;65.21;101994.31;144992;602;6002;-83
2021/11/25 04:55:43;;;;;;;5.82;3.75;;;;;;;13.72;65.35;101996.59;144992;632;6002;-83
2021/11/25 04:58:11;;;;;;;7.25;4.00;;;;;;;13.63;66.22;102000.59;144992;674;6002;-83
2021/11/25 05:00:52;;;;;;;7.28;3.67;;;;;;;13.71;66.32;102001.75;144992;600;6002;-83
2021/11/25 05:03:19;;;;;;;8.57;3.87;;;;;;;13.81;65.36;102003.88;144992;498;6002;-83
2021/11/25 05:05:45;;;;;;;7.82;4.68;;;;;;;13.90;65.30;102011.16;144992;594;6002;-83
2021/11/25 05:08:13;;;;;;;6.22;4.47;;;;;;;13.97;65.30;102000.13;144992;583;6002;-83
2021/11/25 05:10:40;;;;;;;6.65;4.32;;;;;;;14.01;64.62;101995.87;144992;589;6002;-83
2021/11/25 05:13:10;;;;;;;7.70;4.60;;;;;;;14.03;64.58;102002.94;144992;566;6002;-83
2021/11/25 05:15:36;;;;;;;8.05;4.37;;;;;;;14.04;64.72;102003.84;144992;793;6002;-82
2021/11/25 05:18:03;;;;;;;7.90;4.85;;;;;;;14.03;64.63;102005.56;144992;571;6002;-83
2021/11/25 05:20:30;;;;;;;6.70;5.10;;;;;;;14.02;65.03;101993.34;144992;592;6002;-83
2021/11/25 05:22:56;;;;;;;8.80;4.32;;;;;;;14.02;64.98;101992.44;144992;610;6002;-83
2021/11/25 05:25:23;;;;;;;6.82;4.75;;;;;;;14.02;64.55;101988.12;144992;605;6002;-81
2021/11/25 05:27:50;;;;;;;10.25;5.25;;;;;;;14.01;64.96;101998.50;144992;581;6002;-80
2021/11/25 05:30:18;;;;;;;10.43;5.28;;;;;;;14.00;64.84;102000.22;144992;581;6002;-83
2021/11/25 05:32:45;;;;;;;8.70;5.72;;;;;;;13.98;64.84;101999.25;144992;637;6002;-81
2021/11/25 05:35:13;;;;;;;9.13;5.32;;;;;;;13.99;64.69;102008.00;144992;577;6002;-83
2021/11/25 05:37:41;;;;;;;13.35;6.22;;;;;;;13.99;65.00;102008.00;144992;570;6002;-81
2021/11/25 05:40:12;;;;;;;9.15;5.85;;;;;;;13.99;64.95;102014.09;144992;583;6002;-84
2021/11/25 05:42:39;;;;;;;9.30;6.05;;;;;;;14.02;64.73;102002.91;144992;596;6002;-83
2021/11/25 05:45:07;;;;;;;14.32;6.62;;;;;;;14.06;65.38;102007.38;144992;632;6002;-86
2021/11/25 05:47:35;;;;;;;10.00;6.62;;;;;;;14.11;65.01;102004.13;144992;588;6002;-82
2021/11/25 05:50:11;;;;;;;11.07;6.65;;;;;;;14.16;64.60;102001.66;144992;581;6002;-80
2021/11/25 05:52:38;;;;;;;12.73;10.15;;;;;;;14.18;64.98;102006.94;144992;584;6002;-81
2021/11/25 05:55:07;;;;;;;11.57;6.90;;;;;;;14.19;64.72;102008.69;144992;571;6002;-82
2021/11/25 05:57:33;;;;;;;9.63;6.62;;;;;;;14.19;65.36;102011.31;144992;577;6002;-81
2021/11/25 06:00:00;;;;;;;12.63;6.80;;;;;;;14.18;65.32;102009.56;144992;585;6002;-80
2021/11/25 06:02:26;;;;;;;9.68;6.00;;;;;;;14.15;65.01;102005.97;144992;600;6002;-80
2021/11/25 06:04:53;;;;;;;11.95;6.97;;;;;;;14.14;65.17;102014.66;144992;616;6002;-79
2021/11/25 06:07:19;;;;;;;12.70;6.90;;;;;;;14.13;65.26;102009.37;144992;631;6002;-80
2021/11/25 06:09:45;;;;;;;12.85;6.20;;;;;;;14.13;65.33;102006.78;144992;615;6002;-80
2021/11/25 06:12:12;;;;;;;10.05;6.45;;;;;;;14.13;65.38;102014.62;144992;671;6002;-79
2021/11/25 06:14:38;;;;;;;12.77;6.40;;;;;;;14.13;65.55;102014.62;144992;587;6002;-81
2021/11/25 06:17:05;;;;;;;9.88;6.15;;;;;;;14.06;65.24;102018.72;144992;564;6002;-80
2021/11/25 06:19:33;;;;;;;10.52;6.90;;;;;;;14.04;65.31;102025.59;144992;594;6002;-80
2021/11/25 06:22:02;;;;;;;12.45;6.87;;;;;;;14.00;66.06;102028.94;144992;611;6002;-80
2021/11/25 06:24:29;;;;;;;12.35;7.20;;;;;;;13.97;66.22;102027.09;144992;600;6002;-81
2021/11/25 06:26:55;;;;;;;11.57;7.28;;;;;;;14.01;65.88;102030.69;144992;582;6002;-81
2021/11/25 06:29:22;;;;;;;12.05;7.35;;;;;;;14.08;66.24;102037.94;144992;569;6002;-80
2021/11/25 06:31:49;;;;;;;10.05;6.80;;;;;;;14.19;65.45;102026.97;144992;574;6002;-79
2021/11/25 06:34:15;;;;;;;12.02;7.07;;;;;;;14.23;65.63;102021.03;144992;616;6002;-81
2021/11/25 06:36:42;;;;;;;11.90;6.78;;;;;;;14.25;65.45;102019.38;144992;620;6002;-80
2021/11/25 06:39:09;;;;;;;11.15;6.18;;;;;;;14.17;64.90;102019.09;144991;579;6002;-79
2021/11/25 06:41:36;;;;;;;7.95;5.78;;;;;;;13.95;65.84;102026.16;144992;584;6012;-79
2021/11/25 06:44:03;;;;;;;11.82;5.60;;;;;;;13.96;66.02;102029.66;144992;598;6010;-80
2021/11/25 06:46:29;;;;;;;12.20;6.22;;;;;;;14.00;66.00;102023.72;144992;576;6012;-80
2021/11/25 06:48:56;;;;;;;11.68;6.00;;;;;;;14.06;65.30;102020.44;144992;575;6002;-80
2021/11/25 06:51:33;;;;;;;11.80;5.85;;;;;;;14.12;65.36;102021.53;144992;590;6002;-79
2021/11/25 06:54:03;;;;;;;15.27;7.07;;;;;;;14.21;65.30;102012.28;144992;585;6002;-80
2021/11/25 06:56:29;;;;;;;8.23;4.90;;;;;;;14.29;65.03;102024.75;144992;624;6002;-80
2021/11/25 06:58:56;;;;;;;8.40;5.00;;;;;;;14.33;64.90;102029.28;144992;600;6002;-80
2021/11/25 07:01:24;;;;;;;8.05;4.62;;;;;;;14.33;64.57;102024.03;144992;615;6002;-80
2021/11/25 07:03:51;;;;;;;7.25;4.85;;;;;;;14.33;64.39;102026.66;144991;601;6002;-81
2021/11/25 07:06:17;;;;;;;8.65;4.20;;;;;;;14.31;64.63;102038.75;144992;581;6002;-81
2021/11/25 07:08:44;;;;;;;5.40;3.80;;;;;;;14.32;64.31;102037.94;144992;574;6002;-81
2021/11/25 07:11:10;;;;;;;7.65;4.18;;;;;;;14.34;64.19;102037.97;144992;586;6016;-79
2021/11/25 07:13:37;;;;;;;8.43;4.40;;;;;;;14.36;63.99;102043.25;144992;600;6002;-80
2021/11/25 07:16:04;;;;;;;8.95;4.45;;;;;;;14.35;63.95;102050.22;144992;601;6002;-80
2021/11/25 07:18:31;;;;;;;9.98;4.78;;;;;;;14.35;63.69;102045.00;144992;676;6002;-80
2021/11/25 07:20:58;;;;;;;7.10;4.30;;;;;;;14.29;63.83;102052.62;144992;604;6002;-81
2021/11/25 07:23:25;;;;;;;8.15;4.50;;;;;;;14.24;63.88;102052.44;144992;583;6002;-79
2021/11/25 07:25:52;;;;;;;9.27;4.90;;;;;;;14.25;63.96;102046.41;144992;569;6002;-81
2021/11/25 07:28:19;;;;;;;9.85;5.62;;;;;;;14.23;64.36;102044.56;144992;594;6002;-81
2021/11/25 07:30:46;;;;;;;8.23;4.80;;;;;;;14.26;64.37;102044.66;144992;571;6002;-80
2021/11/25 07:33:12;;;;;;;11.52;6.03;;;;;;;14.28;64.19;102038.62;144992;564;6002;-81
2021/11/25 07:35:43;;;;;;;8.02;6.05;;;;;;;14.28;64.36;102045.59;144993;572;6002;-81
2021/11/25 07:38:10;;;;;;;8.55;5.18;;;;;;;14.28;64.28;102049.09;144993;568;6002;-83
2021/11/25 07:40:37;;;;;;;9.68;5.12;;;;;;;14.32;64.42;102044.88;144993;583;6002;-80
2021/11/25 07:43:04;;;;;;;10.20;5.45;;;;;;;14.34;63.94;102040.59;144993;603;6002;-80
2021/11/25 07:45:32;;;;;;;11.80;5.87;;;;;;;14.34;63.71;102053.66;144993;566;6003;-80
2021/11/25 07:47:58;;;;;;;10.63;5.50;;;;;;;14.29;63.93;102050.00;144992;624;6002;-80
2021/11/25 07:50:28;;;;;;;10.63;5.87;;;;;;;14.33;63.95;102050.16;144993;576;6002;-81
2021/11/25 07:52:57;;;;;;;8.05;5.20;;;;;;;14.32;64.35;102047.50;144993;602;6002;-80
2021/11/25 07:55:25;;;;;;;9.10;5.87;;;;;;;14.27;64.13;102047.34;144993;604;6002;-81
2021/11/25 07:57:51;;;;;;;11.10;6.35;;;;;;;14.26;64.37;102042.94;144993;565;6002;-79
2021/11/25 08:00:22;;;;;;;12.27;6.15;;;;;;;14.26;64.63;102063.81;144993;600;6002;-80
2021/11/25 08:02:50;;;;;;;11.65;6.12;;;;;;;14.30;64.84;102052.66;144993;620;6002;-80
2021/11/25 08:05:19;;;;;;;9.48;5.97;;;;;;;14.31;64.57;102050.94;144992;601;6002;-80
2021/11/25 08:07:47;;;;;;;10.98;6.00;;;;;;;14.28;65.19;102043.87;144992;590;6002;-80
2021/11/25 08:10:14;;;;;;;11.68;7.00;;;;;;;14.27;64.88;102044.72;144992;582;6002;-79
2021/11/25 08:12:47;;;;;;;13.05;7.12;;;;;;;14.26;65.26;102048.16;144992;600;6002;-80
2021/11/25 08:15:17;;;;;;;12.32;7.43;;;;;;;14.32;65.22;102039.66;144992;594;6002;-80
2021/11/25 08:17:46;;;;;;;10.88;7.20;;;;;;;14.34;65.00;102037.97;144992;569;6002;-80
2021/11/25 08:20:13;;;;;;;10.48;6.22;;;;;;;14.36;64.72;102033.69;144993;588;6002;-80
2021/11/25 08:22:41;;;;;;;9.50;5.97;;;;;;;14.39;64.67;102041.62;144993;564;6002;-80
2021/11/25 08:25:08;;;;;;;11.38;8.05;;;;;;;14.40;64.81;102042.56;144993;571;6002;-81
2021/11/25 08:27:36;;;;;;;13.05;8.18;;;;;;;14.39;65.09;102038.16;144993;713;6002;-80
2021/11/25 08:30:05;;;;;;;9.00;7.57;;;;;;;14.43;64.87;102038.31;144993;633;6002;-79
2021/11/25 08:32:32;;;;;;;11.65;8.52;;;;;;;14.45;64.88;102036.63;144993;569;6002;-82
2021/11/25 08:34:58;;;;;;;12.13;8.52;;;;;;;14.48;64.63;102035.88;144993;614;6002;-78
2021/11/25 08:37:27;;;;;;;13.43;8.25;;;;;;;14.48;65.27;102034.13;144993;597;6002;-79
2021/11/25 08:39:53;;;;;;;12.63;7.40;;;;;;;14.55;64.65;102023.88;144993;578;6002;-79
2021/11/25 08:42:20;;;;;;;10.57;7.05;;;;;;;14.60;65.14;102011.91;144993;616;6002;-80
2021/11/25 08:44:47;;;;;;;12.70;6.72;;;;;;;14.70;65.04;102014.00;144993;617;6002;-81
2021/11/25 08:47:14;;;;;;;8.23;6.20;;;;;;;14.76;64.66;102018.53;144993;571;6002;-80
2021/11/25 08:49:40;;;;;;;8.85;6.00;;;;;;;14.75;64.88;102007.19;144993;577;6002;-80
2021/11/25 08:52:07;;;;;;;13.60;5.80;;;;;;;14.78;64.99;101995.94;144993;634;6002;-80
2021/11/25 08:54:35;;;;;;;9.15;6.15;;;;;;;14.79;64.41;101998.59;144993;598;6002;-81
2021/11/25 08:57:02;;;;;;;8.52;5.37;;;;;;;14.85;64.31;101990.06;144993;593;6002;-81
2021/11/25 08:59:28;;;;;;;8.13;6.05;;;;;;;14.91;63.96;101992.91;144993;632;6002;-81
2021/11/25 09:01:55;;;;;;;9.90;6.03;;;;;;;14.97;63.86;101987.88;144993;616;6002;-79
2021/11/25 09:04:22;;;;;;;11.25;6.40;;;;;;;15.04;63.58;101978.47;144993;573;6002;-81
2021/11/25 09:06:48;;;;;;;7.47;6.18;;;;;;;15.09;63.78;101976.00;144993;693;6002;-80
2021/11/25 09:09:15;;;;;;;7.22;5.40;;;;;;;15.14;63.16;101972.69;144993;587;6002;-80
2021/11/25 09:11:42;;;;;;;13.80;6.47;;;;;;;15.17;63.35;101969.28;144993;608;6002;-81
2021/11/25 09:14:09;;;;;;;11.57;6.45;;;;;;;15.18;63.28;101964.09;144994;610;5002;-80
2021/11/25 09:16:36;;;;;;;10.10;7.50;;;;;;;15.17;63.24;101967.56;144994;584;5002;-81
2021/11/25 09:19:03;;;;;;;13.98;9.10;;;;;;;15.16;62.78;101970.13;144994;603;5002;-80
2021/11/25 09:21:30;;;;;;;12.77;10.50;;;;;;;15.16;62.83;101971.03;144994;569;5002;-80
2021/11/25 09:24:07;;;;;;;9.45;7.43;;;;;;;15.14;63.16;101962.22;144994;602;5002;-80
2021/11/25 09:26:36;;;;;;;10.30;5.90;;;;;;;15.05;63.30;101949.78;144994;618;5002;-80
2021/11/25 09:29:03;;;;;;;8.20;5.82;;;;;;;15.05;62.74;101948.87;144994;634;5002;-80
2021/11/25 09:31:32;;;;;;;10.73;5.65;;;;;;;15.05;62.98;101947.16;144994;573;5002;-80
2021/11/25 09:34:00;;;;;;;6.78;5.32;;;;;;;15.07;62.74;101941.97;144994;592;5002;-80
2021/11/25 09:36:30;;;;;;;7.70;5.43;;;;;;;15.10;62.79;101947.28;144994;574;5002;-82
2021/11/25 09:38:59;;;;;;;7.78;5.15;;;;;;;15.13;62.63;101934.31;144994;590;5002;-81
2021/11/25 09:41:26;;;;;;;6.15;4.87;;;;;;;15.14;62.15;101941.31;144994;571;5002;-82
2021/11/25 09:43:53;;;;;;;9.57;5.37;;;;;;;15.11;62.41;101938.63;144994;593;5002;-80
2021/11/25 09:46:22;;;;;;;11.57;6.18;;;;;;;14.97;59.22;101929.44;144994;622;5002;-79
2021/11/25 09:48:49;;;;;;;8.98;6.12;;;;;;;14.90;62.62;101936.22;144994;570;5002;-80
2021/11/25 09:51:17;;;;;;;8.80;5.97;;;;;;;14.91;62.64;101929.28;144994;614;5002;-80
2021/11/25 09:53:43;;;;;;;9.40;5.82;;;;;;;14.90;62.73;101919.66;144994;570;5002;-80
2021/11/25 09:56:10;;;;;;;7.55;4.90;;;;;;;14.93;62.69;101933.69;144994;569;5002;-82
2021/11/25 09:58:38;;;;;;;6.60;4.90;;;;;;;14.96;62.79;101925.06;144994;583;5002;-81
2021/11/25 10:01:10;;;;;;;7.35;5.15;;;;;;;15.01;62.91;101921.72;144994;567;5002;-81
2021/11/25 10:03:48;;;;;;;6.93;5.20;;;;;;;15.04;62.54;101920.97;144994;575;5002;-81
2021/11/25 10:06:27;;;;;;;8.02;4.97;;;;;;;15.12;62.41;101921.19;144994;608;5002;-80
2021/11/25 10:08:53;;;;;;;8.63;4.62;;;;;;;15.17;62.27;101919.59;144994;600;5002;-81
2021/11/25 10:11:39;;;;;;;5.47;3.90;;;;;;;15.22;61.75;101918.91;144994;577;5002;-80
2021/11/25 10:14:09;;;;;;;6.40;3.67;;;;;;;15.25;61.53;101918.09;144994;563;5002;-80
2021/11/25 10:16:43;;;;;;;7.25;4.32;;;;;;;15.26;61.73;101914.63;144994;596;5002;-80
2021/11/25 10:19:18;;;;;;;13.82;4.62;;;;;;;15.12;58.25;101906.38;144994;630;5002;-80
2021/11/25 10:21:52;;;;;;;8.40;4.35;;;;;;;15.15;61.61;101913.44;144994;601;5002;-81
2021/11/25 10:24:42;;;;;;;10.05;4.30;;;;;;;15.24;61.61;101900.63;144994;590;5002;-80
2021/11/25 10:27:15;;;;;;;6.72;3.53;;;;;;;15.30;61.29;101892.06;144993;709;5004;-82
2021/11/25 10:29:43;;;;;;;7.20;3.60;;;;;;;15.35;61.05;101895.69;144994;578;5002;-80
2021/11/25 10:32:18;;;;;;;8.93;4.78;;;;;;;15.43;60.92;101891.59;144994;576;5002;-82
2021/11/25 10:35:09;;;;;;;7.97;4.10;;;;;;;15.43;60.48;101888.97;144994;595;5002;-81
2021/11/25 10:37:39;;;;;;;6.03;4.10;;;;;;;15.48;60.27;101886.47;144994;582;5002;-82
2021/11/25 10:40:28;;;;;;;7.85;4.00;;;;;;;15.33;60.55;101881.69;144994;652;5002;-81
2021/11/25 10:42:54;;;;;;;10.50;5.95;;;;;;;15.33;60.29;101879.06;144994;593;5002;-82
2021/11/25 10:45:22;;;;;;;8.40;4.90;;;;;;;15.34;60.34;101880.87;144994;566;5002;-81
2021/11/25 10:48:00;;;;;;;6.90;3.87;;;;;;;15.38;60.46;101882.69;144994;563;5002;-81
2021/11/25 10:50:29;;;;;;;5.87;3.35;;;;;;;15.41;60.00;101869.72;144994;578;5002;-81
2021/11/25 10:53:06;;;;;;;6.37;4.30;;;;;;;15.46;59.49;101864.59;144994;606;5002;-81
2021/11/25 10:55:34;;;;;;;4.82;3.47;;;;;;;15.35;59.01;101866.91;144994;578;5002;-80
2021/11/25 10:58:02;;;;;;;7.10;3.50;;;;;;;15.23;59.74;101859.63;144994;575;5002;-80
2021/11/25 11:00:39;;;;;;;7.50;3.60;;;;;;;15.18;59.22;101859.47;144994;569;5002;-81
2021/11/25 11:03:27;;;;;;;6.05;3.90;;;;;;;15.13;59.24;101866.31;144994;588;5002;-80
2021/11/25 11:06:02;;;;;;;10.25;5.60;;;;;;;15.11;59.62;101852.31;144994;616;5002;-81
2021/11/25 11:08:42;;;;;;;5.68;3.62;;;;;;;14.99;58.96;101852.81;144994;583;5002;-82
2021/11/25 11:11:10;;;;;;;6.65;3.12;;;;;;;15.00;59.91;101846.78;144994;582;5002;-81
2021/11/25 11:13:46;;;;;;;8.05;4.65;;;;;;;15.07;59.54;101847.81;144994;639;5002;-81
2021/11/25 11:16:27;;;;;;;4.82;3.20;;;;;;;15.09;59.65;101845.25;144994;566;5002;-83
2021/11/25 11:19:03;;;;;;;4.72;2.00;;;;;;;15.10;59.11;101847.03;144994;565;5002;-82
2021/11/25 11:21:42;;;;;;;6.70;2.80;;;;;;;15.08;59.15;101840.84;144994;577;5002;-83
2021/11/25 11:24:23;;;;;;;6.47;4.32;;;;;;;15.10;59.54;101845.31;144994;584;5002;-81
2021/11/25 11:26:56;;;;;;;6.50;4.07;;;;;;;15.14;59.59;101838.44;144994;597;5002;-81
2021/11/25 11:29:31;;;;;;;5.93;3.58;;;;;;;15.13;59.60;101834.03;144994;614;5002;-82
2021/11/25 11:32:01;;;;;;;6.53;3.30;;;;;;;15.14;59.73;101838.44;144994;570;5002;-86
2021/11/25 11:34:28;;;;;;;5.12;3.25;;;;;;;15.17;59.78;101844.63;144994;563;5002;-82
2021/11/25 11:36:58;;;;;;;6.37;3.20;;;;;;;15.19;59.16;101836.81;144994;593;5002;-81
2021/11/25 11:39:28;;;;;;;5.25;2.70;;;;;;;15.23;59.88;101844.81;144994;566;5002;-83
2021/11/25 11:41:59;;;;;;;8.15;3.17;;;;;;;15.19;60.18;101836.81;144994;609;5002;-81
2021/11/25 11:44:27;;;;;;;5.50;2.30;;;;;;;15.16;60.24;101835.03;144994;573;5002;-82
2021/11/25 11:47:01;;;;;;;4.57;2.28;;;;;;;15.14;59.91;101844.53;144994;566;5002;-82